createdAt,value
2022-12-08T00:00:03.245Z,80.59
2022-12-08T00:03:34.020Z,80.30
2022-12-08T00:07:13.248Z,80.54
2022-12-08T00:10:51.563Z,80.35
2022-12-08T00:14:13.373Z,80.76
2022-12-08T00:17:34.854Z,80.63
2022-12-08T00:20:56.992Z,81.25
2022-12-08T00:24:19.812Z,81.23
2022-12-08T00:27:43.249Z,81.73
2022-12-08T00:31:09.206Z,81.48
2022-12-08T00:34:31.820Z,81.62
2022-12-08T00:37:59.090Z,81.19
2022-12-08T00:41:44.351Z,81.57
2022-12-08T00:45:08.479Z,80.77
2022-12-08T00:48:30.202Z,81.40
2022-12-08T00:51:51.937Z,80.92
2022-12-08T00:55:13.764Z,81.25
2022-12-08T00:58:35.747Z,81.39
2022-12-08T01:01:58.539Z,81.72
2022-12-08T01:05:20.236Z,81.24
2022-12-08T01:08:42.963Z,80.95
2022-12-08T01:12:04.750Z,81.27
2022-12-08T01:15:26.738Z,80.90
2022-12-08T01:18:50.094Z,81.25
2022-12-08T01:22:11.727Z,81.22
2022-12-08T01:25:35.594Z,81.27
2022-12-08T01:28:57.696Z,81.15
2022-12-08T01:32:19.226Z,81.60
2022-12-08T01:35:42.459Z,81.74
2022-12-08T01:39:05.966Z,81.49
2022-12-08T01:42:27.478Z,81.48
2022-12-08T01:45:49.359Z,81.09
2022-12-08T01:49:15.473Z,81.83
2022-12-08T01:52:41.566Z,81.36
2022-12-08T01:56:08.327Z,81.43
2022-12-08T01:59:31.891Z,82.04
2022-12-08T02:02:58.470Z,81.59
2022-12-08T02:06:21.326Z,82.24
2022-12-08T02:09:46.237Z,82.00
2022-12-08T02:13:10.835Z,81.94
2022-12-08T02:16:39.561Z,82.22
2022-12-08T02:20:33.659Z,82.29
2022-12-08T02:24:04.817Z,82.20
2022-12-08T02:27:38.880Z,82.30
2022-12-08T02:31:08.736Z,82.08
2022-12-08T02:34:41.763Z,82.51
2022-12-08T02:38:13.030Z,81.76
2022-12-08T02:41:43.557Z,82.24
2022-12-08T02:45:10.823Z,82.46
2022-12-08T02:48:34.662Z,82.26
2022-12-08T02:52:07.894Z,82.20
2022-12-08T02:55:34.882Z,82.15
2022-12-08T02:59:14.853Z,82.61
2022-12-08T03:02:46.936Z,82.38
2022-12-08T03:06:20.077Z,82.29
2022-12-08T03:09:48.480Z,82.99
2022-12-08T03:13:14.721Z,82.88
2022-12-08T03:16:39.617Z,83.01
2022-12-08T03:20:07.581Z,83.24
2022-12-08T03:23:29.653Z,82.84
2022-12-08T03:26:58.086Z,82.76
2022-12-08T03:30:20.038Z,83.14
2022-12-08T03:33:44.450Z,82.96
2022-12-08T03:37:06.290Z,82.87
2022-12-08T03:40:27.867Z,83.00
2022-12-08T03:43:52.744Z,82.24
2022-12-08T03:47:14.254Z,82.65
2022-12-08T03:50:36.007Z,82.60
2022-12-08T03:53:57.959Z,82.34
2022-12-08T03:57:19.830Z,82.66
2022-12-08T04:00:43.205Z,82.37
2022-12-08T04:04:05.093Z,82.49
2022-12-08T04:07:26.814Z,82.01
2022-12-08T04:10:48.608Z,82.23
2022-12-08T04:14:10.400Z,82.26
2022-12-08T04:17:33.415Z,81.93
2022-12-08T04:20:55.362Z,81.83
2022-12-08T04:24:17.190Z,82.04
2022-12-08T04:27:39.112Z,82.14
2022-12-08T04:31:01.470Z,81.32
2022-12-08T04:34:24.681Z,81.90
2022-12-08T04:37:46.441Z,82.00
2022-12-08T04:41:08.654Z,81.83
2022-12-08T04:44:30.309Z,82.47
2022-12-08T04:47:51.633Z,82.49
2022-12-08T04:51:17.932Z,82.10
2022-12-08T04:54:39.460Z,82.49
2022-12-08T04:58:02.879Z,82.61
2022-12-08T05:01:24.670Z,82.50
2022-12-08T05:04:46.626Z,82.79
2022-12-08T05:08:10.876Z,83.15
2022-12-08T05:11:32.720Z,83.50
2022-12-08T05:14:54.652Z,83.54
2022-12-08T05:18:16.606Z,83.38
2022-12-08T05:21:38.099Z,83.65
2022-12-08T05:25:01.420Z,83.60
2022-12-08T05:32:05.259Z,83.96
2022-12-08T05:35:26.975Z,83.75
2022-12-08T05:38:49.366Z,83.57
2022-12-08T05:42:12.242Z,83.71
2022-12-08T05:45:36.725Z,84.11
2022-12-08T05:49:00.618Z,83.86
2022-12-08T05:52:22.586Z,83.93
2022-12-08T05:55:44.787Z,84.39
2022-12-08T05:59:08.718Z,84.26
2022-12-08T06:02:30.189Z,83.94
2022-12-08T06:05:52.382Z,84.64
2022-12-08T06:09:14.171Z,84.30
2022-12-08T06:12:36.428Z,84.39
2022-12-08T06:16:05.363Z,84.36
2022-12-08T06:19:27.115Z,84.44
2022-12-08T06:22:48.534Z,84.22
2022-12-08T06:26:13.615Z,84.14
2022-12-08T06:29:35.492Z,84.03
2022-12-08T06:32:58.891Z,84.25
2022-12-08T06:36:23.350Z,83.81
2022-12-08T06:39:45.256Z,83.96
2022-12-08T06:43:07.146Z,84.03
2022-12-08T06:46:29.241Z,83.69
2022-12-08T06:49:52.647Z,83.61
2022-12-08T06:53:15.029Z,84.02
2022-12-08T06:56:36.725Z,83.71
2022-12-08T06:59:58.278Z,83.50
2022-12-08T07:03:20.103Z,83.95
2022-12-08T07:06:43.381Z,83.69
2022-12-08T07:10:05.714Z,84.03
2022-12-08T07:13:27.626Z,83.91
2022-12-08T07:16:49.375Z,83.96
2022-12-08T07:20:11.403Z,84.05
2022-12-08T07:23:34.991Z,84.16
2022-12-08T07:26:56.516Z,83.97
2022-12-08T07:30:18.489Z,84.10
2022-12-08T07:33:40.323Z,83.96
2022-12-08T07:37:02.996Z,84.10
2022-12-08T07:40:26.167Z,84.40
2022-12-08T07:43:48.588Z,84.08
2022-12-08T07:47:10.631Z,83.79
2022-12-08T07:50:32.651Z,84.01
2022-12-08T07:53:55.360Z,83.90
2022-12-08T07:57:18.259Z,83.96
2022-12-08T08:00:40.370Z,83.91
2022-12-08T08:04:04.513Z,84.04
2022-12-08T08:07:26.244Z,84.52
2022-12-08T08:10:48.413Z,84.31
2022-12-08T08:14:11.626Z,84.25
2022-12-08T08:17:33.497Z,84.15
2022-12-08T08:20:55.406Z,84.27
2022-12-08T08:24:17.667Z,83.68
2022-12-08T08:27:39.841Z,83.94
2022-12-08T08:31:03.769Z,83.85
2022-12-08T08:34:25.286Z,83.73
2022-12-08T08:37:49.128Z,83.66
2022-12-08T08:41:12.099Z,83.80
2022-12-08T08:44:33.939Z,83.84
2022-12-08T08:51:19.211Z,84.08
2022-12-08T08:54:41.272Z,83.88
2022-12-08T08:58:03.212Z,84.40
2022-12-08T09:01:28.956Z,84.18
2022-12-08T09:04:52.327Z,84.18
2022-12-08T09:08:13.981Z,83.92
2022-12-08T09:11:35.932Z,83.98
2022-12-08T09:14:57.955Z,83.46
2022-12-08T09:18:19.988Z,83.25
2022-12-08T09:21:43.355Z,83.08
2022-12-08T09:25:05.672Z,83.20
2022-12-08T09:28:27.734Z,83.46
2022-12-08T09:31:49.644Z,83.18
2022-12-08T09:35:11.604Z,83.45
2022-12-08T09:38:35.086Z,83.33
2022-12-08T09:42:00.975Z,83.46
2022-12-08T09:45:24.586Z,83.53
2022-12-08T09:48:49.606Z,83.50
2022-12-08T09:52:21.536Z,83.80
2022-12-08T09:55:47.969Z,83.39
2022-12-08T09:59:23.747Z,83.55
2022-12-08T10:02:48.342Z,82.74
2022-12-08T10:06:17.956Z,83.35
2022-12-08T10:09:43.351Z,83.05
2022-12-08T10:13:12.934Z,83.02
2022-12-08T10:16:37.971Z,83.39
2022-12-08T10:20:03.703Z,83.70
2022-12-08T10:23:34.362Z,83.02
2022-12-08T10:26:57.894Z,82.48
2022-12-08T10:30:22.552Z,83.02
2022-12-08T10:33:45.681Z,82.68
2022-12-08T10:37:11.143Z,81.77
2022-12-08T10:40:43.867Z,82.11
2022-12-08T10:44:10.831Z,81.95
2022-12-08T10:47:40.755Z,82.19
2022-12-08T10:51:05.915Z,82.54
2022-12-08T10:54:30.295Z,82.35
2022-12-08T10:57:52.245Z,82.29
2022-12-08T11:01:18.317Z,82.29
2022-12-08T11:04:41.431Z,83.05
2022-12-08T11:08:05.706Z,82.53
2022-12-08T11:11:44.971Z,82.67
2022-12-08T11:15:08.136Z,82.86
2022-12-08T11:18:32.200Z,83.48
2022-12-08T11:21:55.491Z,83.01
2022-12-08T11:25:20.997Z,83.31
2022-12-08T11:28:43.032Z,83.54
2022-12-08T11:32:10.162Z,83.77
2022-12-08T11:35:36.058Z,83.13
2022-12-08T11:39:02.015Z,82.73
2022-12-08T11:42:27.417Z,83.16
2022-12-08T11:45:54.977Z,82.59
2022-12-08T11:49:18.211Z,83.43
2022-12-08T11:52:46.159Z,83.48
2022-12-08T11:56:14.863Z,83.40
2022-12-08T11:59:39.756Z,84.02
2022-12-08T12:03:08.658Z,83.44
2022-12-08T12:06:55.433Z,83.18
2022-12-08T12:10:32.764Z,83.42
2022-12-08T12:14:06.121Z,83.98
2022-12-08T12:17:41.536Z,83.78
2022-12-08T12:21:08.811Z,83.04
2022-12-08T12:24:36.381Z,83.15
2022-12-08T12:28:03.790Z,83.06
2022-12-08T12:31:30.131Z,82.87
2022-12-08T12:34:56.334Z,83.10
2022-12-08T12:38:43.514Z,82.99
2022-12-08T12:42:06.368Z,83.20
2022-12-08T12:45:32.017Z,83.08
2022-12-08T12:49:34.086Z,83.06
2022-12-08T12:52:57.107Z,82.79
2022-12-08T12:56:48.290Z,82.64
2022-12-08T13:00:18.711Z,82.97
2022-12-08T13:03:43.447Z,83.10
2022-12-08T13:07:06.956Z,83.14
2022-12-08T13:10:32.744Z,82.88
2022-12-08T13:13:58.035Z,83.46
2022-12-08T13:17:27.119Z,82.84
2022-12-08T13:20:53.625Z,82.94
2022-12-08T13:24:29.909Z,82.93
2022-12-08T13:27:55.858Z,83.25
2022-12-08T13:31:38.465Z,83.16
2022-12-08T13:35:01.810Z,83.39
2022-12-08T13:38:29.386Z,82.71
2022-12-08T13:42:00.346Z,83.10
2022-12-08T13:46:12.171Z,83.09
2022-12-08T13:57:05.185Z,83.09
2022-12-08T14:00:28.398Z,82.85
2022-12-08T14:04:22.198Z,83.13
2022-12-08T14:07:35.092Z,83.14
2022-12-08T14:11:02.322Z,82.96
2022-12-08T14:15:01.296Z,82.44
2022-12-08T14:18:25.604Z,83.14
2022-12-08T14:21:57.378Z,83.00
2022-12-08T14:25:20.089Z,83.14
2022-12-08T14:28:45.233Z,83.48
2022-12-08T14:32:19.504Z,82.99
2022-12-08T14:35:42.694Z,82.71
2022-12-08T14:39:04.816Z,83.57
2022-12-08T14:42:28.416Z,83.12
2022-12-08T14:45:53.543Z,83.51
2022-12-08T14:49:33.739Z,83.40
2022-12-08T14:52:57.037Z,83.30
2022-12-08T14:56:23.562Z,83.12
2022-12-08T14:59:47.093Z,82.88
2022-12-08T15:03:09.004Z,83.28
2022-12-08T15:06:31.231Z,83.23
2022-12-08T15:10:11.398Z,83.44
2022-12-08T15:13:33.155Z,83.33
2022-12-08T15:16:55.382Z,83.34
2022-12-08T15:20:33.388Z,83.29
2022-12-08T15:23:57.219Z,83.04
2022-12-08T15:27:21.595Z,82.63
2022-12-08T15:30:43.458Z,82.54
2022-12-08T15:34:05.210Z,82.54
2022-12-08T15:37:27.418Z,82.46
2022-12-08T15:40:49.429Z,83.30
2022-12-08T15:44:12.518Z,83.33
2022-12-08T15:47:35.601Z,83.17
2022-12-08T15:50:57.783Z,82.93
2022-12-08T15:54:20.074Z,83.23
2022-12-08T15:58:38.246Z,82.60
2022-12-08T16:01:27.745Z,83.02
2022-12-08T16:08:46.227Z,82.75
2022-12-08T16:13:26.656Z,82.96
2022-12-08T16:16:21.430Z,82.78
2022-12-08T16:19:45.555Z,83.45
2022-12-08T16:23:26.379Z,83.19
2022-12-08T16:30:31.019Z,83.15
2022-12-08T16:33:53.178Z,83.11
2022-12-08T16:37:17.520Z,83.64
2022-12-08T16:40:59.219Z,83.54
2022-12-08T16:44:21.241Z,83.39
2022-12-08T16:47:45.574Z,83.53
2022-12-08T16:51:10.309Z,83.93
2022-12-08T16:54:33.575Z,83.74
2022-12-08T16:57:56.003Z,83.90
2022-12-08T17:01:19.615Z,83.76
2022-12-08T17:04:41.714Z,83.88
2022-12-08T17:08:04.008Z,83.49
2022-12-08T17:11:30.086Z,83.75
2022-12-08T17:14:52.050Z,83.70
2022-12-08T17:18:14.937Z,82.85
2022-12-08T17:21:37.415Z,82.82
2022-12-08T17:24:59.816Z,83.04
2022-12-08T17:28:51.590Z,82.43
2022-12-08T17:32:05.125Z,82.96
2022-12-08T17:35:27.083Z,82.22
2022-12-08T17:38:49.061Z,82.39
2022-12-08T17:42:11.159Z,82.24
2022-12-08T17:45:34.427Z,81.58
2022-12-08T17:48:55.906Z,81.48
2022-12-08T17:52:17.956Z,81.31
2022-12-08T17:55:40.908Z,81.20
2022-12-08T17:59:04.072Z,81.53
2022-12-08T18:02:27.286Z,81.98
2022-12-08T18:05:49.343Z,81.99
2022-12-08T18:09:10.914Z,81.99
2022-12-08T18:12:33.007Z,82.44
2022-12-08T18:15:54.574Z,82.96
2022-12-08T18:19:17.921Z,82.97
2022-12-08T18:22:40.135Z,82.50
2022-12-08T18:26:02.005Z,81.94
2022-12-08T18:29:24.523Z,81.47
2022-12-08T18:32:46.665Z,81.25
2022-12-08T18:36:11.765Z,81.09
2022-12-08T18:39:34.247Z,81.17
2022-12-08T18:42:55.741Z,81.35
2022-12-08T18:46:17.900Z,81.67
2022-12-08T18:49:39.538Z,81.79
2022-12-08T18:53:02.945Z,81.47
2022-12-08T18:56:27.708Z,81.47
2022-12-08T18:59:49.697Z,81.55
2022-12-08T19:03:11.527Z,81.34
2022-12-08T19:06:34.006Z,81.42
2022-12-08T19:09:59.124Z,81.74
2022-12-08T19:13:20.901Z,82.12
2022-12-08T19:16:42.459Z,81.92
2022-12-08T19:20:05.059Z,81.50
2022-12-08T19:23:29.118Z,81.35
2022-12-08T19:26:52.338Z,81.39
2022-12-08T19:30:15.292Z,81.72
2022-12-08T19:33:38.213Z,81.87
2022-12-08T19:36:59.954Z,81.55
2022-12-08T19:40:39.529Z,81.35
2022-12-08T19:44:20.130Z,81.10
2022-12-08T19:47:42.695Z,81.35
2022-12-08T19:51:05.398Z,80.93
2022-12-08T19:54:28.068Z,80.77
2022-12-08T19:57:50.224Z,80.51
2022-12-08T20:01:13.217Z,80.84
2022-12-08T20:04:35.346Z,80.86
2022-12-08T20:07:57.412Z,80.99
2022-12-08T20:11:18.941Z,81.34
2022-12-08T20:14:45.725Z,80.90
2022-12-08T20:18:09.134Z,81.53
2022-12-08T20:21:31.030Z,81.62
2022-12-08T20:24:58.405Z,82.47
2022-12-08T20:28:22.653Z,82.16
2022-12-08T20:31:44.730Z,82.85
2022-12-08T20:35:08.917Z,82.95
2022-12-08T20:38:31.603Z,83.53
2022-12-08T20:41:54.585Z,83.66
2022-12-08T20:45:16.514Z,83.92
2022-12-08T20:48:39.184Z,84.16
2022-12-08T20:52:02.614Z,84.22
2022-12-08T20:55:24.736Z,84.37
2022-12-08T20:58:47.030Z,84.17
2022-12-08T21:02:16.719Z,84.00
2022-12-08T21:05:38.994Z,84.14
2022-12-08T21:09:02.744Z,84.21
2022-12-08T21:12:24.505Z,84.20
2022-12-08T21:15:47.159Z,84.07
2022-12-08T21:19:09.315Z,83.74
2022-12-08T21:22:31.228Z,83.80
2022-12-08T21:25:54.621Z,83.53
2022-12-08T21:29:16.165Z,83.11
2022-12-08T21:32:39.625Z,83.00
2022-12-08T21:36:08.138Z,83.39
2022-12-08T21:39:30.181Z,83.06
2022-12-08T21:42:53.871Z,82.95
2022-12-08T21:46:20.751Z,82.87
2022-12-08T21:49:43.479Z,83.07
2022-12-08T21:53:06.192Z,82.72
2022-12-08T21:56:27.930Z,82.54
2022-12-08T21:59:52.080Z,82.62
2022-12-08T22:03:15.471Z,82.36
2022-12-08T22:06:37.900Z,82.40
2022-12-08T22:09:59.928Z,82.53
2022-12-08T22:13:21.704Z,82.41
2022-12-08T22:16:45.277Z,82.42
2022-12-08T22:20:08.658Z,82.08
2022-12-08T22:23:30.416Z,81.84
2022-12-08T22:26:51.888Z,82.01
2022-12-08T22:30:14.071Z,82.37
2022-12-08T22:33:37.618Z,82.11
2022-12-08T22:36:59.568Z,82.07
2022-12-08T22:40:21.196Z,81.67
2022-12-08T22:43:43.543Z,81.48
2022-12-08T22:47:05.452Z,81.35
2022-12-08T22:50:28.452Z,81.60
2022-12-08T22:53:51.336Z,80.89
2022-12-08T22:57:13.235Z,81.10
2022-12-08T23:00:35.475Z,80.75
2022-12-08T23:03:57.614Z,80.91
2022-12-08T23:07:21.022Z,80.79
2022-12-08T23:10:42.824Z,80.60
2022-12-08T23:14:04.792Z,80.65
2022-12-08T23:17:26.890Z,80.56
2022-12-08T23:20:48.980Z,80.42
2022-12-08T23:24:12.119Z,80.22
2022-12-08T23:27:34.317Z,80.16
2022-12-08T23:30:56.146Z,80.16
2022-12-08T23:34:17.935Z,79.88
2022-12-08T23:37:39.755Z,80.09
2022-12-08T23:41:03.489Z,80.41
2022-12-08T23:44:25.062Z,80.42
2022-12-08T23:47:47.146Z,81.21
2022-12-08T23:51:09.278Z,81.17
2022-12-08T23:54:31.336Z,80.81
2022-12-08T23:57:54.890Z,80.92
